Time;durP1;ratioP1;P1;durP2;ratioP2;P2;SDS_P1;SDS_P2;PMS_P1;PMS_P2;Temp;Humidity;BMP_temperature;BMP_pressure;BME280_temperature;BME280_humidity;BME280_pressure;Samples;Min_cycle;Max_cycle;Signal;HPM_P1;HPM_P2
2022/01/17 07:58:53;;;;;;;36.85;25.30;;;;;;;4.11;100.00;103163.63;5333072;27;20390;-75
2022/01/17 08:01:24;;;;;;;33.35;24.33;;;;;;;4.14;100.00;103163.25;5329095;28;20032;-75
2022/01/17 08:03:55;;;;;;;33.50;23.00;;;;;;;4.12;100.00;103170.84;5328837;28;20050;-75
2022/01/17 08:06:26;;;;;;;47.13;26.52;;;;;;;4.12;100.00;103181.84;5318538;28;20455;-75
2022/01/17 08:08:58;;;;;;;32.15;24.30;;;;;;;4.18;100.00;103192.06;5332683;27;20123;-75
2022/01/17 08:11:30;;;;;;;35.58;23.98;;;;;;;4.12;100.00;103185.44;5327024;27;20016;-76
2022/01/17 08:14:02;;;;;;;34.78;25.05;;;;;;;4.24;100.00;103185.78;5335267;27;20019;-75
2022/01/17 08:16:33;;;;;;;34.97;24.45;;;;;;;4.24;100.00;103194.03;5329459;27;20124;-75
2022/01/17 08:19:04;;;;;;;38.80;25.73;;;;;;;4.26;100.00;103193.84;5305557;28;20481;-76
2022/01/17 08:21:39;;;;;;;36.92;25.52;;;;;;;4.33;100.00;103181.91;5318766;28;20028;-76
2022/01/17 08:24:10;;;;;;;34.17;22.15;;;;;;;4.31;100.00;103186.75;5305495;28;20122;-75
2022/01/17 08:26:43;;;;;;;32.70;22.48;;;;;;;4.32;100.00;103182.97;5318308;28;20120;-76
2022/01/17 08:29:14;;;;;;;35.05;24.42;;;;;;;4.31;100.00;103181.25;5329646;28;20029;-75
2022/01/17 08:31:47;;;;;;;30.88;23.30;;;;;;;4.35;100.00;103188.06;5337954;28;20019;-75
2022/01/17 08:34:18;;;;;;;32.33;23.05;;;;;;;4.42;100.00;103187.28;5313618;28;20483;-75
2022/01/17 08:36:49;;;;;;;39.45;26.60;;;;;;;4.47;100.00;103190.31;5328934;28;20023;-75
2022/01/17 08:39:23;;;;;;;35.47;23.73;;;;;;;4.49;100.00;103196.47;5317540;27;20016;-75
2022/01/17 08:41:55;;;;;;;36.67;22.80;;;;;;;4.51;100.00;103191.66;5327962;28;20016;-75
2022/01/17 08:44:26;;;;;;;31.23;23.10;;;;;;;4.41;100.00;103185.59;5326006;27;20039;-75
2022/01/17 08:46:57;;;;;;;33.25;23.20;;;;;;;4.39;100.00;103176.69;5322130;28;20403;-76
2022/01/17 08:49:29;;;;;;;35.40;22.58;;;;;;;4.47;100.00;103173.84;5331404;27;20023;-76
2022/01/17 08:52:00;;;;;;;34.53;22.25;;;;;;;4.57;100.00;103171.63;5325036;27;20024;-76
2022/01/17 08:54:31;;;;;;;29.00;21.80;;;;;;;4.57;100.00;103174.38;5330675;27;20035;-75
2022/01/17 08:57:03;;;;;;;32.03;21.38;;;;;;;4.56;100.00;103180.94;5327566;28;20091;-75
2022/01/17 08:59:34;;;;;;;33.10;20.83;;;;;;;4.65;100.00;103181.66;5312364;27;20480;-74
2022/01/17 09:02:06;;;;;;;29.52;19.60;;;;;;;4.63;100.00;103184.63;5337122;28;20574;-74
2022/01/17 09:04:40;;;;;;;30.10;21.50;;;;;;;4.62;100.00;103193.91;5315141;28;20027;-74
2022/01/17 09:07:15;;;;;;;26.97;19.57;;;;;;;4.70;100.00;103191.03;5334076;27;20114;-73
2022/01/17 09:09:52;;;;;;;26.20;20.58;;;;;;;4.78;100.00;103195.56;5313650;27;20031;-73
2022/01/17 09:12:23;;;;;;;30.33;19.52;;;;;;;4.85;100.00;103198.41;5316202;28;20347;-73
2022/01/17 09:14:55;;;;;;;29.45;19.73;;;;;;;4.86;100.00;103194.59;5305954;28;20076;-73
2022/01/17 09:17:26;;;;;;;30.75;20.42;;;;;;;4.90;100.00;103202.25;5295530;28;20472;-73
2022/01/17 09:19:57;;;;;;;28.45;18.58;;;;;;;4.96;100.00;103207.00;5314522;28;20475;-73
2022/01/17 09:22:29;;;;;;;30.05;18.35;;;;;;;4.91;100.00;103225.09;5320898;28;20505;-73
2022/01/17 09:25:00;;;;;;;26.25;18.83;;;;;;;4.87;100.00;103237.56;5305621;28;20024;-73
2022/01/17 09:27:36;;;;;;;24.65;16.58;;;;;;;4.93;100.00;103239.53;5321618;28;20103;-73
2022/01/17 09:30:10;;;;;;;35.97;17.17;;;;;;;4.92;100.00;103243.34;5307833;28;20024;-73
2022/01/17 09:32:42;;;;;;;29.10;15.95;;;;;;;4.99;100.00;103247.00;5313205;28;20494;-71
2022/01/17 09:35:13;;;;;;;29.90;15.48;;;;;;;5.01;100.00;103250.41;5286269;28;20020;-70
2022/01/17 09:37:44;;;;;;;29.80;15.38;;;;;;;5.06;100.00;103238.81;5319329;28;20038;-76
2022/01/17 09:40:18;;;;;;;27.45;15.23;;;;;;;5.09;100.00;103238.44;5311572;28;20352;-72
2022/01/17 09:42:50;;;;;;;22.95;14.23;;;;;;;5.14;100.00;103241.44;5314509;28;20024;-73
2022/01/17 09:45:23;;;;;;;21.88;14.30;;;;;;;5.15;100.00;103238.50;5317683;28;20039;-71
2022/01/17 09:47:55;;;;;;;29.80;13.82;;;;;;;5.20;100.00;103249.78;5298961;28;20031;-73
2022/01/17 09:50:34;;;;;;;25.20;13.82;;;;;;;5.23;100.00;103246.63;5318466;28;20032;-72
2022/01/17 09:53:05;;;;;;;32.83;13.85;;;;;;;5.28;100.00;103258.97;5313793;28;20127;-72
2022/01/17 09:55:37;;;;;;;26.63;14.38;;;;;;;5.31;100.00;103270.41;5322063;28;20099;-72
2022/01/17 09:58:09;;;;;;;32.13;14.40;;;;;;;5.26;100.00;103261.06;5309697;28;20055;-71
2022/01/17 10:00:43;;;;;;;25.38;12.90;;;;;;;5.31;100.00;103269.56;5309561;28;20052;-71
2022/01/17 10:03:18;;;;;;;19.77;11.93;;;;;;;5.42;100.00;103277.34;5308416;28;20049;-72
2022/01/17 10:05:49;;;;;;;44.40;24.65;;;;;;;5.61;100.00;103276.66;5292767;28;20035;-72
2022/01/17 10:08:24;;;;;;;27.73;15.73;;;;;;;5.53;100.00;103279.53;5291380;28;20036;-73
2022/01/17 10:10:57;;;;;;;22.20;11.25;;;;;;;5.44;99.98;103286.22;5302986;28;20032;-72
2022/01/17 10:13:29;;;;;;;25.95;10.93;;;;;;;5.44;99.92;103270.59;5320691;28;20039;-72
2022/01/17 10:16:08;;;;;;;22.95;12.15;;;;;;;5.41;100.00;103281.13;5303000;28;20164;-71
2022/01/17 10:19:01;;;;;;;24.48;11.30;;;;;;;5.41;100.00;103284.72;5317856;28;20038;-72
2022/01/17 10:21:42;;;;;;;31.45;11.70;;;;;;;5.41;100.00;103281.97;5292610;28;20032;-73
2022/01/17 10:27:11;;;;;;;24.80;11.25;;;;;;;5.36;100.00;103294.59;5315550;28;20028;-72
2022/01/17 10:30:16;;;;;;;21.30;12.05;;;;;;;5.36;100.00;103275.34;5322078;28;20024;-71
2022/01/17 10:35:36;;;;;;;26.58;11.82;;;;;;;5.40;100.00;103295.94;5310129;28;20064;-72
2022/01/17 10:38:20;;;;;;;21.50;9.82;;;;;;;5.44;100.00;103297.22;5316835;28;20051;-72
2022/01/17 10:41:02;;;;;;;25.40;10.80;;;;;;;5.43;100.00;103290.03;5308183;28;20064;-72
2022/01/17 10:43:39;;;;;;;19.42;11.90;;;;;;;5.48;100.00;103289.44;5316277;28;20520;-71
2022/01/17 10:46:21;;;;;;;94.45;73.10;;;;;;;5.53;100.00;103298.81;5291868;28;20019;-71
2022/01/17 10:48:53;;;;;;;37.38;21.25;;;;;;;5.51;100.00;103295.41;5315647;28;20111;-71
2022/01/17 10:51:38;;;;;;;25.05;10.20;;;;;;;5.55;100.00;103293.97;5305222;28;20020;-71
2022/01/17 10:54:14;;;;;;;22.10;9.85;;;;;;;5.58;99.95;103287.22;5320994;28;20024;-71
2022/01/17 10:56:50;;;;;;;22.83;9.80;;;;;;;5.56;99.66;103309.44;5301999;28;20035;-72
2022/01/17 10:59:26;;;;;;;18.77;8.40;;;;;;;5.64;99.63;103316.72;5313423;28;20027;-72
2022/01/17 11:01:59;;;;;;;21.38;10.13;;;;;;;5.66;99.20;103318.22;5309059;28;20474;-72
2022/01/17 11:04:34;;;;;;;30.85;19.98;;;;;;;5.75;99.24;103320.84;5318421;28;20020;-72
2022/01/17 11:07:07;;;;;;;19.52;8.90;;;;;;;5.70;99.21;103326.06;5316445;28;20467;-73
2022/01/17 11:09:44;;;;;;;22.48;8.13;;;;;;;5.74;99.51;103331.00;5308470;28;20028;-74
2022/01/17 11:12:17;;;;;;;26.33;10.60;;;;;;;5.71;99.17;103336.06;5316481;28;20018;-73
2022/01/17 11:14:48;;;;;;;24.33;9.27;;;;;;;5.74;98.77;103339.25;5314892;28;20032;-72
2022/01/17 11:17:33;;;;;;;20.90;9.73;;;;;;;5.78;98.96;103325.97;5311911;28;20024;-71
2022/01/17 11:20:12;;;;;;;37.05;10.43;;;;;;;5.80;98.94;103332.09;5311669;28;20036;-72
2022/01/17 11:22:46;;;;;;;26.10;9.15;;;;;;;5.79;98.67;103327.66;5313737;28;20024;-73
2022/01/17 11:25:24;;;;;;;30.65;9.32;;;;;;;5.84;98.87;103325.16;5311349;28;20020;-72
2022/01/17 11:27:56;;;;;;;23.80;9.02;;;;;;;5.87;98.18;103313.75;5320476;28;20030;-70
2022/01/17 11:30:28;;;;;;;25.27;8.43;;;;;;;5.87;98.35;103313.75;5298157;28;20114;-71
2022/01/17 11:33:03;;;;;;;23.98;9.45;;;;;;;5.89;98.71;103308.91;5314103;28;20052;-71
2022/01/17 11:35:41;;;;;;;25.77;10.40;;;;;;;5.93;98.84;103307.47;5307802;28;20017;-71
2022/01/17 11:38:15;;;;;;;29.58;11.48;;;;;;;5.94;98.47;103292.66;5292514;28;20027;-71
2022/01/17 11:40:46;;;;;;;24.13;8.73;;;;;;;5.94;98.29;103298.19;5314170;28;20479;-68
2022/01/17 11:43:36;;;;;;;23.30;9.15;;;;;;;6.00;98.08;103289.09;5318240;28;20024;-68
2022/01/17 11:46:16;;;;;;;27.88;10.30;;;;;;;6.01;97.97;103290.81;5303269;28;20073;-67
2022/01/17 11:48:58;;;;;;;20.58;8.27;;;;;;;6.05;97.95;103311.41;5303199;28;20024;-67
2022/01/17 11:51:40;;;;;;;26.40;10.15;;;;;;;6.04;98.33;103319.88;5299519;28;20031;-68
2022/01/17 11:54:20;;;;;;;22.10;8.70;;;;;;;6.12;98.48;103332.66;5291813;28;20378;-71
2022/01/17 11:57:02;;;;;;;21.17;7.90;;;;;;;6.30;98.35;103335.75;5309405;28;20044;-75
2022/01/17 11:59:46;;;;;;;24.52;9.13;;;;;;;6.46;98.35;103334.59;5296258;28;20520;-75
2022/01/17 12:02:34;;;;;;;22.00;8.15;;;;;;;6.66;97.56;103341.09;5289898;28;20027;-75
2022/01/17 12:05:10;;;;;;;15.38;8.00;;;;;;;6.56;96.80;103348.03;5305131;28;20028;-74
2022/01/17 12:07:44;;;;;;;17.08;8.52;;;;;;;6.80;96.95;103333.78;5317005;28;20030;-75
2022/01/17 12:10:24;;;;;;;18.55;7.35;;;;;;;6.64;95.87;103334.09;5296891;28;20080;-76
2022/01/17 12:13:11;;;;;;;21.75;7.95;;;;;;;6.78;96.04;103333.13;5314459;28;20049;-73
2022/01/17 12:15:58;;;;;;;19.73;7.90;;;;;;;6.74;95.84;103323.53;5306116;28;20715;-71
2022/01/17 12:18:32;;;;;;;14.65;7.05;;;;;;;6.85;95.83;103311.94;5296650;28;20122;-70
2022/01/17 12:21:32;;;;;;;20.88;6.85;;;;;;;6.84;95.72;103304.69;5310798;28;20082;-72
2022/01/17 12:24:15;;;;;;;20.85;7.88;;;;;;;6.85;95.81;103297.28;5297006;28;20452;-73
2022/01/17 12:26:52;;;;;;;23.20;7.88;;;;;;;6.73;95.17;103308.06;5315131;28;20028;-73
2022/01/17 12:29:54;;;;;;;21.20;8.10;;;;;;;6.84;95.29;103329.53;5318218;28;20438;-73
2022/01/17 12:32:25;;;;;;;46.10;28.30;;;;;;;6.88;95.37;103339.13;5307315;28;20031;-74
2022/01/17 12:35:11;;;;;;;39.58;18.63;;;;;;;6.88;95.20;103332.75;5314810;28;20462;-74
2022/01/17 12:37:44;;;;;;;21.83;8.63;;;;;;;6.87;94.98;103320.84;5294617;28;20031;-74
2022/01/17 12:40:35;;;;;;;29.48;15.27;;;;;;;6.93;95.80;103328.31;5311147;28;20024;-73
2022/01/17 12:43:09;;;;;;;20.45;7.97;;;;;;;6.91;94.75;103337.84;5315618;28;20035;-71
2022/01/17 12:45:42;;;;;;;29.90;8.32;;;;;;;6.92;95.25;103354.19;5295986;28;20020;-73
2022/01/17 12:48:22;;;;;;;17.30;7.40;;;;;;;6.95;95.16;103345.53;5323874;28;20055;-73
2022/01/17 12:50:55;;;;;;;24.10;7.20;;;;;;;6.99;95.23;103323.03;5317462;28;20032;-74
2022/01/17 12:53:27;;;;;;;20.35;8.13;;;;;;;7.08;95.48;103311.63;5300040;28;20035;-75
2022/01/17 12:56:02;;;;;;;26.23;8.00;;;;;;;6.94;95.42;103302.41;5324861;28;20043;-75
2022/01/17 12:58:36;;;;;;;30.20;7.60;;;;;;;7.00;95.00;103303.50;5313322;28;20620;-73
2022/01/17 13:01:13;;;;;;;25.25;7.13;;;;;;;7.05;95.16;103284.41;5315166;28;20028;-68
2022/01/17 13:03:49;;;;;;;22.58;8.45;;;;;;;7.06;95.37;103296.31;5303585;28;20027;-67
2022/01/17 13:06:20;;;;;;;24.13;6.57;;;;;;;7.12;94.94;103312.88;5325426;28;20046;-69
2022/01/17 13:08:53;;;;;;;21.30;6.60;;;;;;;7.11;95.16;103308.44;5317832;28;20451;-72
2022/01/17 13:11:25;;;;;;;18.60;7.70;;;;;;;7.27;94.54;103318.25;5299623;28;20031;-69
2022/01/17 13:13:59;;;;;;;29.38;6.15;;;;;;;7.32;94.77;103312.13;5311662;28;20025;-70
2022/01/17 13:16:34;;;;;;;24.05;6.97;;;;;;;7.36;94.73;103327.19;5316313;28;20048;-70
2022/01/17 13:19:09;;;;;;;21.35;6.57;;;;;;;7.56;94.45;103314.28;5301167;28;20098;-75
2022/01/17 13:21:42;;;;;;;18.88;5.97;;;;;;;7.44;94.04;103304.06;5305283;28;20028;-74
2022/01/17 13:24:32;;;;;;;22.42;6.30;;;;;;;7.58;93.96;103295.59;5323012;28;20020;-75
2022/01/17 13:27:13;;;;;;;29.27;8.10;;;;;;;7.51;92.84;103293.88;5317824;28;20027;-72
2022/01/17 13:29:46;;;;;;;21.65;6.75;;;;;;;7.46;93.31;103291.75;5305644;28;20024;-74
2022/01/17 13:32:17;;;;;;;27.67;6.50;;;;;;;7.51;93.45;103283.69;5299862;28;20446;-73
2022/01/17 13:34:48;;;;;;;20.45;6.25;;;;;;;7.67;93.86;103281.59;5321338;27;20032;-73
2022/01/17 13:37:20;;;;;;;18.17;5.65;;;;;;;7.71;93.79;103283.72;5313084;28;20111;-74
2022/01/17 13:39:51;;;;;;;23.40;6.93;;;;;;;7.53;93.17;103291.78;5302381;28;20021;-75
2022/01/17 13:42:23;;;;;;;20.20;6.32;;;;;;;7.55;93.22;103286.91;5297093;28;20051;-75
2022/01/17 13:44:55;;;;;;;22.83;7.55;;;;;;;7.50;92.65;103294.97;5296039;28;20415;-73
2022/01/17 13:47:26;;;;;;;21.30;6.35;;;;;;;7.70;93.01;103314.34;5309490;28;20028;-73
2022/01/17 13:49:57;;;;;;;21.40;6.50;;;;;;;7.68;92.70;103317.28;5304606;28;20035;-74
2022/01/17 13:52:29;;;;;;;33.30;11.82;;;;;;;7.71;92.25;103336.19;5298022;28;20028;-74
2022/01/17 13:55:00;;;;;;;38.42;19.25;;;;;;;7.72;92.32;103326.00;5316572;28;20034;-73
2022/01/17 13:57:31;;;;;;;20.00;9.02;;;;;;;7.81;91.57;103325.59;5326768;28;20489;-73
2022/01/17 14:00:06;;;;;;;28.02;8.48;;;;;;;7.74;91.32;103333.00;5308056;28;20020;-74
2022/01/17 14:02:40;;;;;;;21.10;7.77;;;;;;;7.78;91.90;103322.41;5316521;28;20023;-72
2022/01/17 14:05:12;;;;;;;20.02;5.60;;;;;;;7.82;91.51;103312.63;5296711;28;20295;-72
2022/01/17 14:07:44;;;;;;;22.10;7.07;;;;;;;7.92;90.71;103301.16;5319048;28;20028;-73
2022/01/17 14:10:32;;;;;;;23.48;7.25;;;;;;;7.87;90.46;103298.19;5310317;28;20527;-72
2022/01/17 14:13:06;;;;;;;21.77;6.95;;;;;;;7.90;90.80;103303.28;5313277;28;20425;-75
2022/01/17 14:15:37;;;;;;;23.33;5.60;;;;;;;7.87;90.80;103292.66;5293594;28;20020;-74
2022/01/17 14:18:11;;;;;;;15.73;5.72;;;;;;;7.83;90.35;103298.63;5299467;28;20038;-75
2022/01/17 14:20:55;;;;;;;18.25;5.70;;;;;;;7.93;90.83;103305.66;5308726;28;20034;-73
2022/01/17 14:23:35;;;;;;;23.10;5.47;;;;;;;7.98;89.97;103312.22;5286487;28;20033;-74
2022/01/17 14:26:06;;;;;;;21.38;6.15;;;;;;;8.06;89.63;103305.63;5301593;28;20030;-73
2022/01/17 14:28:49;;;;;;;21.90;5.90;;;;;;;7.90;89.13;103306.03;5314064;28;20027;-73
2022/01/17 14:31:21;;;;;;;24.55;5.32;;;;;;;7.92;89.54;103307.53;5302737;28;20020;-74
2022/01/17 14:33:54;;;;;;;24.02;6.53;;;;;;;8.00;89.92;103321.16;5310076;28;20031;-73
2022/01/17 14:36:25;;;;;;;21.33;5.93;;;;;;;8.04;89.35;103332.63;5316295;28;20076;-74
2022/01/17 14:38:58;;;;;;;25.95;7.13;;;;;;;8.03;89.20;103330.94;5307347;28;20127;-74
2022/01/17 14:41:34;;;;;;;22.92;6.35;;;;;;;8.04;89.45;103343.69;5295013;28;20029;-74
2022/01/17 14:44:12;;;;;;;20.30;5.00;;;;;;;8.01;88.94;103344.13;5313423;28;20032;-72
2022/01/17 14:46:50;;;;;;;17.52;4.85;;;;;;;8.18;88.98;103350.94;5307534;28;20027;-75
2022/01/17 14:49:21;;;;;;;21.17;5.50;;;;;;;7.96;88.46;103352.19;5313647;28;20110;-74
2022/01/17 14:51:54;;;;;;;25.23;5.53;;;;;;;7.97;88.82;103348.34;5302395;28;20192;-74
2022/01/17 14:54:31;;;;;;;20.08;5.03;;;;;;;7.97;89.25;103359.41;5302079;28;20027;-72
2022/01/17 15:00:00;;;;;;;24.90;6.95;;;;;;;7.87;89.47;103375.53;5311182;28;20485;-73
2022/01/17 15:02:37;;;;;;;27.35;7.00;;;;;;;7.88;89.80;103372.59;5318025;28;20028;-73
2022/01/17 15:05:09;;;;;;;20.52;6.75;;;;;;;7.88;89.68;103377.25;5309439;28;20020;-73
2022/01/17 15:07:41;;;;;;;21.92;6.40;;;;;;;7.82;89.92;103378.94;5310721;28;20020;-72
2022/01/17 15:10:13;;;;;;;17.00;6.15;;;;;;;7.95;90.27;103376.22;5317105;28;20019;-72
2022/01/17 15:12:44;;;;;;;20.50;6.30;;;;;;;7.92;90.05;103378.53;5307920;28;20031;-73
2022/01/17 15:15:16;;;;;;;22.80;6.90;;;;;;;7.82;90.02;103377.03;5315516;28;20142;-73
2022/01/17 15:17:55;;;;;;;21.15;6.88;;;;;;;7.74;90.27;103379.13;5316653;28;20069;-72
2022/01/17 15:20:28;;;;;;;23.83;6.63;;;;;;;7.83;90.37;103387.03;5291835;28;20380;-72
2022/01/17 15:23:01;;;;;;;27.67;5.85;;;;;;;7.90;90.65;103388.94;5301866;28;20383;-73
2022/01/17 15:25:32;;;;;;;28.75;7.55;;;;;;;7.81;90.80;103389.13;5314413;28;20028;-70
2022/01/17 15:28:08;;;;;;;20.50;6.78;;;;;;;7.78;90.96;103402.53;5295913;28;20023;-70
2022/01/17 15:30:40;;;;;;;20.35;6.18;;;;;;;7.84;90.64;103413.56;5297154;28;20530;-71
2022/01/17 15:33:11;;;;;;;25.33;5.65;;;;;;;7.80;90.67;103406.78;5295814;28;20104;-70
2022/01/17 15:35:42;;;;;;;23.48;6.40;;;;;;;7.91;90.61;103393.41;5320100;28;20020;-71
2022/01/17 15:38:13;;;;;;;21.20;5.57;;;;;;;7.92;90.08;103392.34;5303608;28;20020;-69
2022/01/17 15:40:46;;;;;;;24.27;7.07;;;;;;;7.92;90.27;103395.09;5312818;28;20463;-71
2022/01/17 15:43:17;;;;;;;25.10;7.05;;;;;;;7.78;90.54;103406.13;5301992;28;20028;-70
2022/01/17 15:45:49;;;;;;;22.95;5.35;;;;;;;7.84;90.18;103401.69;5294746;28;20043;-70
2022/01/17 15:48:20;;;;;;;24.77;5.97;;;;;;;7.95;90.47;103400.22;5306518;28;20032;-70
2022/01/17 15:50:57;;;;;;;20.02;6.22;;;;;;;7.83;90.48;103411.88;5310873;28;20027;-70
2022/01/17 15:53:29;;;;;;;25.73;5.93;;;;;;;7.81;90.48;103422.28;5305941;28;20097;-70
2022/01/17 15:56:00;;;;;;;42.15;27.52;;;;;;;7.80;90.65;103430.81;5307862;28;20027;-72
2022/01/17 15:58:32;;;;;;;24.50;10.18;;;;;;;7.73;89.91;103425.25;5317240;28;20044;-72
2022/01/17 16:01:03;;;;;;;24.27;7.75;;;;;;;7.73;90.93;103410.59;5298997;28;20052;-72
2022/01/17 16:03:35;;;;;;;25.30;8.55;;;;;;;7.76;89.97;103410.16;5294304;28;20056;-72
2022/01/17 16:06:08;;;;;;;33.92;18.85;;;;;;;7.85;90.07;103433.78;5309509;28;20104;-72
2022/01/17 16:08:40;;;;;;;26.65;9.68;;;;;;;7.94;90.34;103442.72;5315799;28;20039;-73
2022/01/17 16:11:12;;;;;;;20.67;7.40;;;;;;;7.92;90.19;103451.22;5317219;28;20030;-72
2022/01/17 16:13:44;;;;;;;22.35;8.90;;;;;;;8.02;89.95;103451.66;5308232;28;20115;-73
2022/01/17 16:16:15;;;;;;;29.77;8.50;;;;;;;7.91;89.76;103454.22;5313600;28;20095;-70
2022/01/17 16:18:46;;;;;;;25.10;8.13;;;;;;;7.99;89.86;103456.78;5311178;28;20035;-69
2022/01/17 16:21:19;;;;;;;24.17;8.70;;;;;;;8.04;89.50;103470.81;5299236;28;20024;-71
2022/01/17 16:23:50;;;;;;;22.08;8.02;;;;;;;7.91;89.46;103470.78;5316972;28;20433;-71
2022/01/17 16:26:22;;;;;;;21.38;9.73;;;;;;;7.95;89.70;103472.06;5314758;28;20079;-68
2022/01/17 16:28:54;;;;;;;24.95;8.35;;;;;;;7.76;89.81;103463.50;5317577;28;20728;-68
2022/01/17 16:31:32;;;;;;;25.85;11.05;;;;;;;7.61;89.76;103473.84;5322960;28;20023;-70
2022/01/17 16:34:04;;;;;;;20.23;6.07;;;;;;;7.75;90.02;103486.66;5312242;28;20076;-70
2022/01/17 16:36:35;;;;;;;21.90;5.97;;;;;;;7.78;90.16;103494.53;5307893;28;20102;-70
2022/01/17 16:39:06;;;;;;;23.83;7.05;;;;;;;7.62;90.00;103495.75;5317645;28;20043;-70
2022/01/17 16:41:38;;;;;;;19.52;7.88;;;;;;;7.61;89.87;103487.66;5311576;28;20077;-71
2022/01/17 16:44:13;;;;;;;21.50;6.75;;;;;;;7.94;89.96;103481.41;5294100;28;20469;-70
2022/01/17 16:46:44;;;;;;;25.85;7.65;;;;;;;7.64;89.69;103476.19;5304539;28;20025;-70
2022/01/17 16:49:16;;;;;;;22.75;7.80;;;;;;;7.52;89.46;103477.88;5313594;28;20134;-71
2022/01/17 16:51:47;;;;;;;19.88;8.20;;;;;;;7.83;89.87;103472.66;5306771;28;20027;-70
2022/01/17 16:54:18;;;;;;;25.13;6.95;;;;;;;7.70;90.08;103475.38;5320057;28;20020;-69
2022/01/17 16:56:50;;;;;;;33.65;13.30;;;;;;;7.47;89.60;103477.63;5309549;28;20095;-68
2022/01/17 16:59:22;;;;;;;23.88;8.07;;;;;;;7.37;90.11;103469.72;5305379;28;20104;-68
2022/01/17 17:01:56;;;;;;;24.00;8.65;;;;;;;7.29;90.32;103473.50;5320217;28;20034;-67
2022/01/17 17:04:28;;;;;;;27.42;9.20;;;;;;;7.28;90.40;103477.28;5310310;28;20463;-69
2022/01/17 17:06:59;;;;;;;50.65;29.98;;;;;;;7.13;90.47;103485.72;5316744;28;20129;-67
2022/01/17 17:09:32;;;;;;;36.60;18.88;;;;;;;7.16;91.05;103495.50;5299039;28;20016;-67
2022/01/17 17:12:04;;;;;;;35.78;14.90;;;;;;;7.02;91.08;103493.69;5306286;28;20035;-68
2022/01/17 17:14:36;;;;;;;62.25;42.33;;;;;;;6.95;91.48;103500.03;5304503;28;20399;-68
2022/01/17 17:17:07;;;;;;;24.40;12.02;;;;;;;6.94;91.87;103484.50;5297622;28;20476;-68
2022/01/17 17:19:40;;;;;;;31.13;11.52;;;;;;;6.87;91.81;103485.50;5305748;28;20482;-68
2022/01/17 17:22:14;;;;;;;34.65;9.25;;;;;;;6.80;92.36;103485.47;5323220;28;20046;-68
2022/01/17 17:24:50;;;;;;;32.40;15.68;;;;;;;6.75;93.23;103490.75;5316341;28;20028;-68
2022/01/17 17:27:22;;;;;;;35.65;17.98;;;;;;;6.78;93.36;103498.59;5293469;28;20463;-68
2022/01/17 17:29:53;;;;;;;26.85;9.25;;;;;;;6.83;93.24;103486.97;5307321;28;20395;-67
